KOVL

Olivia Regional Airport

Olivia, Minnesota, USA
METAR KOVL 250515Z AUTO 14006KT 10SM BKN085 OVC110 21/17 A2985 RMK AO2 LTG DSNT E
Observed Flight Rules
May-25 @ 05:15 UTC (15 minutes ago) Visual Flight Rules
Wind Visibility Clouds
140° at 6 knots 10 miles
  • Broken at 8,500' AGL
  • Overcast at 11,000' AGL
Temperatures Readings
Current 21°C / 70°F
Dewpoint 17°C / 63°F
Humidity 78%
Altimeter 29.85" Hg
Pressure 1011 hPa
Elevation 328
METAR KOVL 250515Z AUTO 14006KT 10SM BKN085 OVC110 21/17 A2985 RMK AO2 LTG DSNT E
Observed Flight Rules
May-25 @ 05:15 UTC
(15 minutes ago)
VFR
Wind Visibility
140° at 6 knots 10 miles
Clouds
  • Broken at 8,500' AGL
  • Overcast at 11,000' AGL
Temperature Dewpoint
21°C / 70°F 17°C / 63°F
Humidity Altimeter Pressure
78% 29.85" Hg 1011 hPa